Werte bis 5 Uhr SommerzeitDiagramme Niedergude: Tagesdaten MonatsdatenCSV-Datei: Niedergude19.csv

Wetterdaten 2019 Station: Niedergude
Temperaturen in °C relative Nieder- Global- Wind Wind Wind- Sonnen-
Datum Boden Boden Luft Luft Luft Luft Feuchte schlag strahlung max richtung schein
20 cm 5 cm 20 cm 2 m 2 m max 2 m min % mm W/m2*d m/s m/s ° h

21.09.2019 13,4 11,3 2,7 4,4 5,8 2,9 80 0,0 0 0,6 1,5 --- ---
20.09.2019 13,3 11,7 8,7 9,2 21,2 0,6 60 0,0 3180 0,5 3,6 --- 9,1
19.09.2019 13,6 12,2 8,8 9,0 16,9 1,9 62 0,0 2812 0,9 5,4 --- 8,6
18.09.2019 14,1 12,7 10,3 10,1 17,3 2,8 60 0,0 3486 1,4 7,8 --- 9,0
17.09.2019 14,7 13,6 12,1 12,0 17,5 7,4 68 0,2 2266 2,0 9,7 --- 6,9
16.09.2019 14,8 13,8 13,6 13,9 19,0 9,9 75 2,1 782 0,6 4,7 --- 2,4
15.09.2019 15,0 13,7 15,4 15,3 26,5 4,9 53 0,0 3885 1,1 6,8 --- 9,6
14.09.2019 15,3 14,1 14,0 14,4 23,3 6,1 56 0,0 4190 0,9 5,4 --- 9,4
13.09.2019 15,1 14,6 16,5 16,6 23,0 11,6 75 0,0 1950 1,2 7,3 --- 6,3
12.09.2019 14,7 14,4 17,5 17,1 22,8 13,2 72 0,4 2431 0,9 7,2 --- 8,3
11.09.2019 14,4 13,4 13,7 13,6 22,4 3,7 61 0,6 3920 1,4 8,3 --- 8,6
10.09.2019 14,8 13,9 12,1 11,7 20,1 5,7 66 0,1 3074 0,8 5,8 --- 7,6
09.09.2019 15,0 14,3 13,3 13,1 18,0 9,2 71 0,2 1805 1,1 6,2 --- 6,0
08.09.2019 15,2 14,2 12,4 12,3 18,6 6,3 71 0,0 1939 0,8 4,3 --- 5,9
07.09.2019 15,6 14,5 12,3 11,9 18,6 8,1 69 0,1 2018 0,6 3,7 --- 8,9
06.09.2019 15,6 14,7 13,3 12,8 23,2 4,7 59 0,0 4658 0,7 3,9 --- 10,1
05.09.2019 16,0 15,5 15,8 15,2 20,5 11,4 61 0,1 3249 2,1 9,5 --- 8,5
04.09.2019 15,8 15,4 17,7 16,8 25,1 7,7 60 0,0 4678 1,4 8,0 --- 9,9
03.09.2019 15,9 15,3 15,6 14,5 24,1 5,7 58 0,0 4775 1,4 8,8 --- 9,6
02.09.2019 16,7 15,8 14,1 13,3 21,2 7,1 61 0,0 4483 1,2 6,4 --- 9,8
01.09.2019 17,6 17,3 18,6 18,4 23,8 11,6 66 0,0 2093 1,3 10,0 --- 5,6
31.08.2019 17,6 17,6 23,7 23,7 34,7 14,0 57 0,0 4800 0,6 5,5 --- 9,7
30.08.2019 17,6 17,7 22,8 21,6 29,7 15,8 66 0,0 4984 0,8 4,8 --- 10,0
29.08.2019 17,4 17,5 22,5 21,8 31,3 15,0 63 0,0 4225 0,9 9,5 --- 9,2
28.08.2019 17,2 17,4 24,0 23,4 34,3 15,6 56 0,0 4528 0,9 7,7 --- 9,9
27.08.2019 17,0 17,1 22,8 23,0 32,7 15,5 59 0,0 3347 0,5 3,6 --- 8,2
26.08.2019 16,7 16,8 23,9 24,2 33,5 15,4 56 0,0 5251 1,0 7,4 --- 10,3
25.08.2019 16,3 16,3 23,3 23,5 34,4 15,3 61 0,0 4481 0,5 4,7 --- 8,8
24.08.2019 15,7 15,5 20,3 20,5 30,2 9,7 52 0,0 5802 1,0 7,0 --- 10,4
23.08.2019 15,8 15,3 18,8 19,0 29,8 8,3 51 0,0 5867 0,8 6,8 --- 10,4
22.08.2019 15,9 15,6 17,7 18,0 28,6 8,4 54 0,0 5811 0,6 4,4 --- 10,5
21.08.2019 16,0 15,7 16,3 15,8 25,7 7,2 58 0,0 5908 0,7 4,5 --- 10,2
20.08.2019 16,5 16,1 15,3 15,2 21,3 8,4 62 0,0 2708 0,7 3,1 --- 9,0
19.08.2019 17,1 17,2 18,8 17,9 23,9 11,9 58 0,4 5430 1,6 8,7 --- 10,6
18.08.2019 16,9 17,0 20,5 20,3 27,3 16,5 74 4,7 2984 1,4 12,9 --- 8,5
17.08.2019 16,6 16,3 18,0 18,4 21,5 14,5 62 0,4 1359 1,3 9,1 --- 4,5
16.08.2019 16,6 16,4 18,2 17,4 23,5 12,3 66 0,4 5088 1,3 6,5 --- 11,0
15.08.2019 16,6 16,2 16,2 16,4 22,3 13,5 76 3,6 1624 0,7 7,7 --- 4,2
14.08.2019 16,6 16,1 16,6 15,1 22,3 8,4 58 0,0 5615 1,0 6,3 --- 11,2
13.08.2019 16,9 16,5 16,3 15,1 21,1 10,4 64 0,1 4952 1,4 7,7 --- 10,0
12.08.2019 17,4 17,0 17,9 17,2 26,0 10,6 66 9,5 4626 0,7 9,9 --- 10,2
11.08.2019 17,5 17,3 19,4 19,3 27,1 12,3 52 0,8 4758 1,2 10,4 --- 8,9
10.08.2019 17,9 17,9 21,2 21,0 25,0 18,3 59 0,2 3547 2,1 10,6 --- 10,7
09.08.2019 17,3 17,4 20,6 20,8 29,3 12,7 68 13,2 2736 0,4 4,7 --- 8,3
08.08.2019 17,4 17,3 19,2 18,3 25,6 11,5 66 0,6 5509 1,5 10,5 --- 10,6
07.08.2019 17,8 17,9 19,6 19,3 22,6 15,6 73 0,6 2365 0,9 5,2 --- 8,6
06.08.2019 17,8 17,9 20,2 19,7 25,0 12,6 66 0,1 3210 1,1 7,2 --- 10,5
05.08.2019 17,9 18,1 21,2 20,9 28,6 15,1 60 0,2 3742 0,7 6,2 --- 9,3
04.08.2019 17,6 17,8 20,4 19,0 26,7 11,7 65 0,0 6487 0,7 4,6 --- 11,4
03.08.2019 17,7 17,9 19,1 18,0 23,9 14,6 72 5,1 4483 1,2 5,6 --- 10,9
02.08.2019 17,7 17,9 19,3 18,6 26,1 13,3 68 11,4 4012 0,7 7,8 --- 9,3
01.08.2019 17,8 17,9 19,3 18,1 25,5 11,2 59 0,0 4100 0,8 6,5 --- 9,9
31.07.2019 18,4 18,9 21,8 20,5 26,5 14,0 55 0,4 5235 1,4 8,4 --- 10,8
30.07.2019 18,4 19,0 23,9 22,5 31,2 15,7 58 0,0 5696 0,9 4,8 --- 11,1
29.07.2019 18,6 19,0 19,4 19,4 22,1 17,7 82 0,1 1052 0,9 3,8 --- 2,5
28.07.2019 18,5 19,2 23,4 22,8 28,8 19,0 55 3,5 3728 1,2 4,5 --- 8,9
27.07.2019 18,4 19,5 25,6 25,7 31,4 20,2 34 0,0 6868 2,8 10,0 --- 11,7
26.07.2019 18,2 19,5 26,8 27,3 35,0 18,7 36 0,0 7005 2,1 8,7 --- 11,9
25.07.2019 17,9 19,4 27,8 28,3 37,7 17,5 43 0,0 7058 0,8 5,0 --- 12,4
24.07.2019 17,3 18,7 26,9 27,0 37,7 15,8 48 0,0 7110 0,7 3,6 --- 12,4
23.07.2019 16,8 18,0 24,5 24,1 34,3 13,7 53 0,0 7231 0,6 3,2 --- 12,4
22.07.2019 16,5 17,4 21,4 20,0 29,0 11,4 61 0,0 5412 1,0 5,8 --- 12,0
21.07.2019 16,4 17,5 21,5 19,7 25,9 14,4 65 6,1 6684 1,4 6,9 --- 12,0
20.07.2019 15,9 16,9 21,0 20,8 30,5 12,1 66 4,0 4573 0,7 5,8 --- 10,0
19.07.2019 15,8 16,8 18,8 18,4 25,4 14,5 76 2,4 2744 0,5 3,2 --- 7,4
18.07.2019 15,1 16,0 18,8 17,4 26,4 9,1 67 0,7 6011 0,8 6,5 --- 10,9
17.07.2019 15,2 15,8 16,0 15,2 21,2 10,6 74 0,0 2388 0,6 2,9 --- 10,2
16.07.2019 14,9 15,4 14,3 13,3 20,2 6,9 75 0,0 3794 1,0 5,8 --- 9,0
15.07.2019 15,4 15,8 14,3 13,8 16,0 9,9 75 0,0 1720 1,0 4,6 --- 6,8
14.07.2019 15,7 16,2 14,5 14,3 16,9 11,4 79 0,0 1573 0,9 4,4 --- 5,7
13.07.2019 15,8 16,5 15,2 15,1 17,4 13,3 88 1,0 1445 1,0 4,9 --- 4,6
12.07.2019 15,7 16,8 17,4 17,1 25,4 13,4 81 10,9 3276 0,6 8,1 --- 7,8
11.07.2019 15,3 16,3 16,2 15,8 18,6 12,7 84 10,2 2088 0,5 3,7 --- 8,2
10.07.2019 14,6 15,6 17,0 15,3 23,6 6,0 58 0,0 6927 1,0 5,2 --- 11,7
09.07.2019 14,7 15,4 13,8 13,0 17,3 7,1 64 0,0 2844 1,3 5,5 --- 10,1
08.07.2019 15,2 15,8 14,2 13,0 17,8 6,8 63 0,0 3249 1,4 7,3 --- 8,8
07.07.2019 15,9 17,1 16,8 15,4 19,1 8,8 55 0,2 4809 1,7 6,8 --- 11,8
06.07.2019 15,8 17,2 21,7 19,8 28,6 11,2 53 0,0 6412 1,6 9,3 --- 11,1
05.07.2019 15,6 17,0 20,6 18,7 26,9 11,7 53 0,0 6014 1,3 7,2 --- 11,1
04.07.2019 15,4 16,5 17,8 16,0 23,9 5,6 50 0,0 7733 0,9 5,7 --- 12,4
03.07.2019 15,8 16,8 16,3 14,9 21,8 6,3 54 0,0 5484 1,1 5,8 --- 12,1
02.07.2019 16,5 17,8 18,7 16,8 22,7 9,1 53 0,0 6378 1,5 6,9 --- 12,5
01.07.2019 17,0 18,8 23,0 21,7 27,7 16,8 52 0,6 6125 1,5 8,4 --- 10,7
30.06.2019 16,8 18,5 27,6 26,4 36,3 13,0 45 0,0 7790 1,1 6,9 --- 12,4
29.06.2019 16,8 18,4 23,1 22,4 33,8 10,2 48 0,0 8135 0,7 3,4 --- 12,4
28.06.2019 17,0 18,6 19,3 18,6 27,5 10,6 54 0,0 7986 1,1 4,4 --- 11,9
27.06.2019 17,3 19,5 22,6 20,8 26,4 15,9 52 0,0 8425 1,6 7,5 --- 12,3
26.06.2019 17,1 19,8 28,8 27,1 35,3 17,5 55 0,0 7440 1,1 5,1 --- 12,4
25.06.2019 16,4 19,0 27,2 26,6 35,9 15,7 46 0,0 7289 0,6 5,7 --- 12,2
24.06.2019 16,0 18,4 24,9 24,4 30,1 16,5 44 0,0 8003 1,9 7,0 --- 12,5
23.06.2019 15,6 17,9 22,8 22,3 28,8 15,2 45 0,0 8132 1,9 9,7 --- 12,5
22.06.2019 15,4 17,5 19,1 18,7 25,4 10,7 60 0,0 6954 1,9 8,0 --- 11,8
21.06.2019 15,5 17,8 20,3 18,4 24,1 13,5 63 0,0 6306 0,8 5,4 --- 11,0
20.06.2019 15,6 18,1 20,4 19,4 26,3 14,5 72 3,3 3805 0,9 5,9 --- 8,9
19.06.2019 15,4 18,2 25,4 24,1 32,2 14,4 55 0,0 7333 0,8 6,2 --- 11,5
18.06.2019 14,5 17,3 23,4 22,8 32,1 12,6 56 0,0 6865 0,5 3,5 --- 11,6
17.06.2019 14,1 16,5 19,4 19,0 26,9 11,2 65 0,2 6554 0,8 5,1 --- 12,1
16.06.2019 14,2 16,4 16,5 16,5 22,1 12,1 80 3,0 2347 0,4 3,7 --- 6,7
15.06.2019 14,1 17,0 20,2 19,7 25,3 14,2 61 0,0 5578 1,4 11,5 --- 11,1
14.06.2019 13,7 16,3 19,2 19,6 28,5 9,7 60 0,0 4721 0,6 6,5 --- 10,1
13.06.2019 13,7 16,1 17,7 17,0 23,7 9,9 63 0,0 6010 1,0 8,6 --- 10,7
12.06.2019 14,0 16,5 15,8 15,8 18,5 10,7 85 14,8 1879 1,0 8,2 --- 4,7
11.06.2019 13,9 16,8 18,3 17,9 25,0 13,6 74 4,6 4095 0,8 4,2 --- 9,7
10.06.2019 13,7 16,8 19,7 19,6 26,9 13,7 62 0,0 4285 0,6 4,2 --- 9,1
09.06.2019 13,2 16,0 16,8 16,8 24,1 7,2 55 0,0 6366 1,1 5,9 --- 11,6
08.06.2019 13,5 16,4 15,2 14,4 19,3 10,6 56 0,8 4269 1,9 11,8 --- 12,0
07.06.2019 13,5 16,6 16,2 15,9 25,3 7,9 73 5,8 6677 1,1 7,5 --- 11,4
06.06.2019 14,0 17,2 15,6 15,9 23,8 10,0 75 2,6 1167 1,4 7,4 --- 2,8
05.06.2019 13,8 18,2 24,8 25,1 32,5 17,1 50 0,0 6243 0,9 5,7 --- 12,1
04.06.2019 13,2 17,7 22,3 22,1 30,9 15,1 63 0,0 6821 0,4 2,9 --- 11,9
03.06.2019 12,6 16,8 21,0 21,2 31,8 15,2 66 15,4 5072 0,9 8,3 --- 8,1
02.06.2019 12,2 16,5 23,1 22,7 31,8 11,8 53 0,0 7774 0,6 4,4 --- 12,4
01.06.2019 11,5 15,7 20,8 19,5 27,5 10,4 63 0,0 7312 0,8 5,4 --- 12,4
31.05.2019 10,7 14,7 19,2 17,5 25,3 9,7 67 0,0 5926 1,0 5,7 --- 12,0
30.05.2019 10,3 13,8 14,7 13,9 19,8 4,8 63 0,0 3994 1,3 7,6 --- 10,8
29.05.2019 10,3 14,2 12,8 12,4 19,2 7,1 59 1,1 6965 0,9 4,7 --- 11,3
28.05.2019 10,4 14,1 12,6 12,3 18,8 8,8 86 8,6 2278 0,6 7,6 --- 7,1
27.05.2019 10,7 14,7 15,3 15,7 18,0 12,5 74 1,1 2408 1,2 4,8 --- 7,6
26.05.2019 10,3 14,4 16,7 15,0 22,1 5,6 58 0,0 6775 1,5 8,2 --- 11,4
25.05.2019 10,1 14,4 15,6 13,9 19,2 8,8 65 0,0 7731 1,2 6,7 --- 12,4
24.05.2019 9,6 13,9 17,0 15,7 23,8 7,4 61 0,0 5889 0,8 4,6 --- 11,9
23.05.2019 9,0 12,9 14,6 13,2 22,0 4,8 67 0,1 6512 0,7 5,0 --- 11,4
22.05.2019 9,1 12,8 12,2 12,1 16,7 7,1 79 0,2 1882 1,8 5,8 --- 5,5
21.05.2019 9,3 13,3 13,7 14,0 15,4 13,1 88 0,6 1631 2,7 9,8 --- 4,3
20.05.2019 9,0 13,4 15,8 15,3 21,4 10,9 84 51,2 3499 1,8 7,9 --- 7,7
19.05.2019 8,5 12,9 16,4 16,2 24,7 8,8 62 0,0 5980 0,9 6,5 --- 10,2
18.05.2019 7,3 11,6 15,8 15,6 25,2 5,6 57 0,0 7275 0,8 4,4 --- 12,3
17.05.2019 6,7 10,3 11,1 11,1 17,1 7,2 75 0,0 2655 1,5 5,8 --- 7,9
16.05.2019 6,7 10,2 7,9 8,1 10,3 7,1 73 3,2 1176 1,0 5,5 --- 3,2
15.05.2019 6,5 10,1 8,2 8,0 13,9 -0,3 52 0,0 6136 1,7 8,5 --- 10,2
14.05.2019 6,5 10,1 9,0 8,8 14,1 1,0 51 0,0 5253 1,7 7,4 --- 11,4
13.05.2019 6,5 10,2 8,8 8,6 14,9 -0,5 48 0,0 7569 1,7 10,0 --- 11,4
12.05.2019 6,2 10,2 9,7 8,7 14,0 4,0 60 0,0 5994 1,9 9,0 --- 10,8
11.05.2019 6,3 10,0 8,0 8,7 10,3 6,5 89 22,7 1044 1,3 8,7 --- 3,3
10.05.2019 6,3 10,2 11,0 10,6 13,9 7,4 75 0,3 2642 1,7 8,4 --- 9,6
09.05.2019 5,9 9,9 11,0 10,9 15,5 7,0 75 0,2 2117 0,8 5,7 --- 6,6
08.05.2019 5,6 9,1 8,6 8,7 13,8 2,4 78 3,7 1554 0,6 5,6 --- 7,7
07.05.2019 5,7 9,3 8,4 7,8 11,8 4,6 65 0,0 2484 0,8 4,0 --- 8,3
06.05.2019 5,6 9,1 6,8 6,1 11,0 0,7 64 0,0 3164 1,3 7,6 --- 9,6
05.05.2019 5,9 9,1 6,0 5,2 10,9 -1,4 67 2,0 3880 1,4 6,6 --- 10,4
04.05.2019 6,5 10,1 5,2 4,4 9,3 1,0 77 11,2 3068 1,1 6,9 --- 8,6
03.05.2019 7,1 11,2 9,4 8,3 11,8 5,2 62 0,4 4002 1,8 8,5 --- 10,5
02.05.2019 6,9 11,2 12,6 10,9 18,1 4,0 66 0,4 6151 1,6 7,2 --- 11,0
01.05.2019 6,6 10,7 12,1 11,4 18,8 4,1 69 0,0 4758 1,1 5,6 --- 10,2
30.04.2019 6,2 10,3 11,4 11,2 17,8 4,7 60 0,1 6587 1,6 11,6 --- 11,6
29.04.2019 6,2 9,6 7,2 7,0 12,1 1,3 84 3,3 2110 1,6 7,9 --- 6,1
28.04.2019 6,5 10,4 9,2 8,6 15,8 3,6 71 0,8 3654 0,8 3,8 --- 10,7
27.04.2019 6,6 10,3 8,3 8,2 15,1 4,0 87 5,2 1918 0,8 12,1 --- 5,9
26.04.2019 7,0 11,1 9,7 10,3 16,1 7,6 81 11,6 929 1,2 5,5 --- 2,1
25.04.2019 7,1 11,7 15,3 15,7 25,8 3,9 49 0,0 5143 1,2 6,2 --- 11,4
24.04.2019 6,8 11,7 18,4 18,4 26,5 11,1 49 0,0 5804 1,6 9,9 --- 10,9
23.04.2019 6,1 10,5 14,2 14,5 20,3 8,5 49 0,0 5665 4,0 13,2 --- 10,2
22.04.2019 6,0 10,5 15,5 15,9 21,4 9,4 33 0,0 6457 3,5 12,9 --- 11,2
21.04.2019 5,7 10,0 14,4 15,0 23,8 4,7 44 0,0 6271 1,7 8,5 --- 11,1
20.04.2019 5,5 9,9 14,5 15,3 23,7 6,3 42 0,0 6233 1,1 5,9 --- 11,1
19.04.2019 5,1 9,8 15,7 16,2 22,4 10,2 36 0,0 6224 2,5 9,1 --- 11,1
18.04.2019 4,7 9,3 14,4 14,7 19,7 8,6 39 0,0 6133 3,6 13,2 --- 11,0
17.04.2019 4,3 8,7 12,6 13,0 19,5 5,9 34 0,0 4787 2,1 7,8 --- 11,1
16.04.2019 3,7 7,9 11,0 11,2 18,3 2,4 35 0,0 5752 2,7 8,0 --- 11,0
15.04.2019 3,3 7,2 8,5 8,4 14,5 2,6 56 0,1 5908 2,8 10,8 --- 11,0
14.04.2019 3,1 6,2 2,2 2,5 6,3 -3,0 81 0,1 2089 2,0 7,7 --- 6,7
13.04.2019 3,6 7,0 2,2 2,1 6,3 -0,9 73 0,0 2993 1,8 7,6 --- 9,5
12.04.2019 4,1 7,2 2,3 2,5 4,1 1,0 58 0,0 1484 2,6 7,2 --- 5,0
11.04.2019 4,4 7,7 4,1 4,2 9,5 -2,4 48 0,0 5402 3,0 12,3 --- 10,3
10.04.2019 5,1 8,6 6,4 6,6 11,4 3,5 52 0,0 4365 3,3 11,2 --- 10,5
09.04.2019 5,5 9,4 8,6 9,0 13,3 4,4 70 0,0 4638 2,2 8,0 --- 10,1
08.04.2019 5,4 9,9 13,1 13,5 19,6 8,2 55 0,0 4070 1,2 7,5 --- 8,8
07.04.2019 4,9 8,8 12,2 12,8 18,8 6,2 57 0,0 4724 2,4 9,9 --- 9,3
06.04.2019 4,5 8,4 11,6 11,9 18,7 6,6 68 0,0 4421 1,7 9,6 --- 9,1
05.04.2019 4,2 7,5 6,4 6,8 9,2 5,0 89 0,2 707 1,1 4,1 --- 1,6
04.04.2019 4,4 7,7 5,7 5,9 8,7 3,0 89 1,0 608 1,1 4,3 --- 0,6
03.04.2019 4,6 8,2 10,1 10,5 13,9 5,1 70 10,2 1669 1,2 11,3 --- 6,5
02.04.2019 4,0 7,3 9,7 10,2 19,0 0,6 51 0,0 3524 1,0 6,1 --- 8,6
01.04.2019 4,1 7,1 7,5 7,6 12,7 2,4 47 0,0 5051 3,9 10,8 --- 10,2
31.03.2019 4,4 7,5 7,2 7,7 13,5 2,0 70 0,0 3124 1,5 8,1 --- 9,6
30.03.2019 4,3 7,5 10,1 10,3 18,9 1,2 60 0,0 4341 1,3 8,8 --- 9,9
29.03.2019 4,2 7,9 11,0 11,2 17,8 5,4 60 0,0 4223 0,8 6,3 --- 10,0
28.03.2019 3,7 7,1 9,2 9,2 13,1 5,8 69 0,3 2196 0,8 5,3 --- 6,8
27.03.2019 3,2 6,2 7,0 6,8 11,3 1,9 67 0,1 2639 1,2 5,9 --- 8,7
26.03.2019 3,1 5,7 5,1 5,3 7,3 4,0 74 0,4 1234 2,1 8,7 --- 3,0
25.03.2019 3,3 5,7 3,7 4,0 7,4 0,8 76 3,5 2200 2,1 12,1 --- 7,3
24.03.2019 3,6 6,4 6,8 7,2 13,3 2,6 72 0,0 1753 1,2 4,8 --- 4,8
23.03.2019 3,5 6,6 7,8 7,7 15,8 2,3 76 0,0 3800 1,3 5,9 --- 9,4
22.03.2019 3,0 6,4 10,3 10,9 21,6 2,1 65 0,0 3906 0,9 4,8 --- 9,7
21.03.2019 2,4 5,6 7,6 8,2 19,0 -0,6 64 0,0 3819 0,6 3,0 --- 9,4
20.03.2019 2,0 4,6 4,8 4,6 13,2 -3,8 67 0,1 3862 0,8 5,7 --- 9,3
19.03.2019 2,3 5,1 2,3 2,4 8,2 -2,8 70 0,1 2463 1,1 5,7 --- 8,0
18.03.2019 2,7 6,2 4,3 4,4 8,5 1,8 68 1,4 2213 2,6 9,4 --- 6,0
17.03.2019 2,9 7,0 7,2 7,8 9,9 4,5 67 1,1 1374 2,7 13,3 --- 4,7
16.03.2019 2,7 6,3 7,4 8,2 11,2 5,4 76 2,6 608 2,9 12,7 --- 1,6
15.03.2019 2,3 5,7 6,8 7,8 11,9 5,6 79 13,9 602 2,9 11,2 --- 1,1
14.03.2019 2,2 5,3 4,5 5,4 6,9 4,3 82 4,3 395 2,9 10,1 --- ---
13.03.2019 2,3 5,4 5,2 5,7 9,1 3,4 65 1,9 1416 3,6 15,3 --- 4,0
12.03.2019 2,2 5,1 4,9 5,2 8,1 1,0 62 1,0 2058 2,0 12,0 --- 8,0
11.03.2019 2,7 5,5 2,2 2,9 4,8 0,9 79 5,3 946 3,5 12,7 --- 3,0
10.03.2019 3,0 6,6 6,1 6,8 11,9 2,3 74 10,2 1087 3,3 20,9 --- 3,5
09.03.2019 3,0 6,4 7,4 8,0 12,7 5,3 69 2,3 1393 3,5 16,1 --- 5,8
08.03.2019 3,0 5,8 7,3 7,6 10,2 6,3 58 0,1 1877 3,7 12,9 --- 5,7
07.03.2019 3,0 6,0 10,2 10,6 12,3 6,8 52 0,8 2055 2,9 16,6 --- 6,1
06.03.2019 2,4 4,7 7,3 7,9 13,2 0,1 67 0,0 1688 1,0 6,3 --- 6,3
05.03.2019 2,6 4,9 4,2 4,9 7,6 0,5 75 1,3 1063 2,9 11,7 --- 3,0
04.03.2019 2,8 5,6 8,5 9,3 12,0 5,5 62 3,0 1781 3,7 19,3 --- 4,6
03.03.2019 2,4 5,0 8,6 9,5 10,7 8,2 73 0,0 311 2,5 11,4 --- 0,1
02.03.2019 2,2 4,5 5,0 5,3 8,5 2,7 83 0,6 639 0,8 6,9 --- 0,8
01.03.2019 1,9 4,5 7,2 7,8 10,5 4,9 86 4,5 638 1,5 7,9 --- 0,8
28.02.2019 1,3 3,2 6,8 7,2 15,2 -0,8 62 0,0 1978 1,7 14,9 --- 3,8
27.02.2019 1,2 2,9 5,2 6,5 21,1 -3,1 49 0,0 2265 0,6 2,1 --- 3,8
26.02.2019 1,3 3,2 5,5 6,1 17,7 -1,6 57 0,0 2267 1,0 5,1 --- 3,8
25.02.2019 1,2 3,1 4,7 5,5 18,4 -2,6 58 0,0 2143 0,7 2,5 --- 3,7
24.02.2019 1,5 3,3 2,8 3,6 16,1 -3,5 56 0,0 2062 0,6 2,1 --- 3,6
23.02.2019 1,9 4,2 2,2 2,7 9,6 -2,7 62 0,0 1981 1,5 8,1 --- 3,8
22.02.2019 1,9 5,1 7,2 7,8 9,9 2,9 78 0,0 600 1,9 7,3 --- 0,6
21.02.2019 1,3 4,2 5,5 6,0 10,9 0,6 80 0,0 1066 1,1 7,4 --- 2,2
20.02.2019 1,2 4,1 4,5 5,0 10,0 1,1 72 0,0 1296 0,9 6,5 --- 2,2
19.02.2019 1,0 3,7 4,5 5,3 10,7 0,9 68 0,3 1259 1,3 8,2 --- 2,1
18.02.2019 1,0 3,3 4,4 5,8 15,7 -1,9 63 0,1 1954 0,8 3,8 --- 3,6
17.02.2019 1,1 3,3 4,2 5,5 16,5 -1,9 66 0,0 1879 0,7 3,8 --- 3,5
16.02.2019 1,2 3,5 4,6 5,9 17,2 -1,1 62 0,0 1901 0,7 2,9 --- 3,3
15.02.2019 1,4 3,6 3,1 4,3 16,0 -2,8 71 0,0 1860 0,6 2,0 --- 3,3
14.02.2019 1,8 4,1 2,2 2,9 13,6 -1,7 78 0,0 1573 0,6 2,2 --- 2,9
13.02.2019 1,8 4,6 3,6 3,9 8,3 0,5 74 0,0 1284 1,1 5,8 --- 2,4
12.02.2019 1,8 4,7 2,7 3,5 5,5 2,2 68 0,0 576 2,0 8,0 --- 0,8
11.02.2019 1,9 4,9 2,9 3,6 5,4 2,2 81 6,7 816 2,5 10,5 --- 1,0
10.02.2019 1,6 4,3 5,3 6,5 9,1 4,4 83 15,6 74 2,4 11,8 --- ---
09.02.2019 1,1 3,3 6,5 7,3 9,9 5,0 62 1,4 1096 3,1 14,3 --- 1,9
08.02.2019 0,4 1,9 4,5 5,5 7,2 3,3 75 0,0 318 1,7 9,6 --- ---
07.02.2019 -0,2 1,1 0,8 1,7 3,5 -0,7 75 0,3 120 0,8 6,3 --- ---
06.02.2019 -0,4 1,1 0,7 1,6 7,3 -2,8 73 0,2 1325 0,9 3,9 --- 2,9
05.02.2019 -0,4 1,4 0,6 1,3 5,3 -2,3 71 0,1 589 0,7 5,5 --- 0,7
04.02.2019 -0,3 1,1 -0,4 0,4 4,6 -3,8 72 0,0 1112 1,1 6,3 --- 2,6
03.02.2019 -0,2 1,7 0,6 1,2 2,0 0,1 78 0,0 534 2,2 8,8 --- 0,8
02.02.2019 -0,4 1,2 1,2 1,8 2,7 1,0 90 1,1 211 0,7 4,0 --- ---
01.02.2019 -0,6 0,6 0,7 1,2 4,2 -0,9 77 0,0 772 1,4 7,2 --- 1,6
31.01.2019 -0,6 0,4 -0,5 0,3 3,4 -3,7 69 0,0 906 1,2 6,4 --- 1,9
30.01.2019 -0,4 0,5 -1,1 -0,4 1,4 -2,0 75 0,0 533 1,9 7,8 --- 0,5
29.01.2019 -0,3 0,9 -0,1 0,6 3,5 -1,8 79 0,3 681 1,0 9,8 --- 1,0
28.01.2019 -0,5 0,6 0,9 1,8 3,1 0,9 88 4,2 36 1,9 9,5 --- ---
27.01.2019 -0,6 0,2 3,6 4,4 6,2 1,5 87 2,6 346 1,3 8,4 --- 0,2
26.01.2019 -0,6 0,0 1,8 2,8 5,0 -1,0 91 8,6 112 1,5 6,6 --- ---
25.01.2019 -0,4 -0,2 -3,6 -3,6 -0,9 -5,6 80 0,0 629 1,0 5,1 --- 0,9
24.01.2019 -0,3 -0,3 -5,2 -5,1 -2,7 -7,3 84 0,0 406 1,3 6,2 --- 0,2
23.01.2019 -0,2 -0,2 -4,9 -4,6 -3,1 -5,8 77 0,0 512 1,7 5,8 --- 0,4
22.01.2019 0,1 -0,1 -7,5 -6,8 -3,3 -10,9 88 0,0 281 0,7 4,4 --- ---
21.01.2019 0,5 0,2 -6,3 -5,7 0,7 -9,6 84 0,0 922 0,5 2,5 --- 1,3
20.01.2019 1,1 0,6 -5,5 -4,5 1,0 -8,9 74 0,0 1023 0,9 5,3 --- 1,9
19.01.2019 2,0 1,4 -4,1 -3,4 0,9 -7,8 73 0,0 866 0,7 4,2 --- 1,7
18.01.2019 2,7 2,8 -0,9 -0,6 2,9 -5,1 72 0,6 892 1,4 8,4 --- 1,5
17.01.2019 3,0 3,4 3,4 4,0 6,6 1,5 77 1,4 502 2,5 10,6 --- 0,7
16.01.2019 3,1 3,4 3,4 4,3 5,4 2,3 77 0,0 102 2,4 8,7 --- ---
15.01.2019 3,0 3,2 2,4 3,3 5,4 1,2 73 0,2 79 2,7 8,6 --- ---
14.01.2019 3,4 3,8 2,5 3,3 5,9 1,0 73 4,0 570 3,6 13,3 --- 0,8
13.01.2019 3,2 3,7 5,0 6,1 8,2 4,0 87 9,6 0 2,6 17,0 --- ---
12.01.2019 2,9 3,2 3,5 4,6 5,1 4,1 89 2,9 76 2,3 8,5 --- ---
11.01.2019 3,2 2,7 0,3 0,9 4,8 -1,2 90 3,5 0 0,7 4,2 --- ---
10.01.2019 4,3 2,6 -1,1 0,3 1,2 -1,0 71 0,0 298 1,9 8,6 --- ---
09.01.2019 4,8 3,1 -0,8 1,7 3,3 0,3 74 0,8 88 3,1 14,7 --- ---
08.01.2019 5,1 4,1 1,7 4,6 6,0 2,7 82 7,0 242 4,2 13,7 --- ---
07.01.2019 5,2 4,2 1,8 4,3 5,5 3,3 87 2,3 267 3,0 10,1 --- ---
06.01.2019 4,9 4,2 3,3 6,1 7,8 4,9 90 2,4 269 1,2 5,9 --- ---
05.01.2019 4,0 3,1 2,3 5,2 7,0 2,2 92 2,3 105 2,2 7,4 --- ---
04.01.2019 3,6 1,9 -1,7 0,7 2,3 -1,8 92 0,0 195 2,4 7,3 --- ---
03.01.2019 4,1 2,1 -4,5 -2,2 1,0 -5,9 91 0,0 423 0,8 3,5 --- 0,5
02.01.2019 5,3 3,5 -1,1 2,1 5,1 -3,9 58 0,3 787 2,3 13,8 --- 2,3
01.01.2019 5,8 5,2 2,8 5,7 7,7 2,0 83 2,3 219 3,2 12,8 --- ---

Mittelwerte (Temperaturen, Strahlung, rel. Feuchte, Wind), Summe (Regen) für 2019
9,0 10,8 11,7 11,7 66 425 3.383 1,4

Landesbetrieb Landwirtschaft Hessen 2009

      Werte bis 5 Uhr SommerzeitCSV-Datei: Niedergude19.csvDiagramm: Niedergude